Time;durP1;ratioP1;P1;durP2;ratioP2;P2;SDS_P1;SDS_P2;PMS_P1;PMS_P2;Temp;Humidity;BMP_temperature;BMP_pressure;BME280_temperature;BME280_humidity;BME280_pressure;Samples;Min_cycle;Max_cycle;Signal;HPM_P1;HPM_P2
2021/01/28 00:02:01;;;;;;;36.45;17.13;;;4.20;98.30;;;;;;5093385;23;20326;-79
2021/01/28 00:04:04;;;;;;;37.47;18.08;;;4.20;98.30;;;;;;5094032;23;20717;-79
2021/01/28 00:06:08;;;;;;;35.55;17.40;;;4.30;98.30;;;;;;5098440;23;20211;-79
2021/01/28 00:08:11;;;;;;;38.15;15.73;;;4.30;98.30;;;;;;5098536;23;20203;-79
2021/01/28 00:10:14;;;;;;;37.70;18.10;;;4.20;98.30;;;;;;5096413;23;20633;-79
2021/01/28 00:12:17;;;;;;;40.20;18.13;;;4.30;98.30;;;;;;5098388;23;20214;-80
2021/01/28 00:14:19;;;;;;;42.80;18.70;;;4.30;98.30;;;;;;5088843;23;20240;-80
2021/01/28 00:16:21;;;;;;;33.85;17.15;;;4.30;98.30;;;;;;5088752;23;20207;-79
2021/01/28 00:18:23;;;;;;;31.30;15.95;;;4.30;98.30;;;;;;5088157;23;20208;-79
2021/01/28 00:20:29;;;;;;;30.70;16.17;;;4.30;98.30;;;;;;5096452;23;20250;-79
2021/01/28 00:22:32;;;;;;;36.03;16.60;;;4.40;98.30;;;;;;5090167;23;20211;-79
2021/01/28 00:24:35;;;;;;;38.22;17.92;;;4.40;98.30;;;;;;5089808;23;20515;-79
2021/01/28 00:26:37;;;;;;;36.00;16.92;;;4.40;98.30;;;;;;5088597;23;20211;-79
2021/01/28 00:28:39;;;;;;;37.95;17.17;;;4.40;98.30;;;;;;5088268;23;20218;-79
2021/01/28 00:30:43;;;;;;;35.53;16.83;;;4.40;98.30;;;;;;5088302;23;20208;-80
2021/01/28 00:32:46;;;;;;;33.50;16.88;;;4.40;98.30;;;;;;5097252;23;20781;-79
2021/01/28 00:34:49;;;;;;;41.05;18.40;;;4.40;98.30;;;;;;5088321;23;20315;-79
2021/01/28 00:36:51;;;;;;;37.15;17.98;;;4.50;98.30;;;;;;5088230;23;20204;-80
2021/01/28 00:38:54;;;;;;;34.47;16.17;;;4.50;98.30;;;;;;5088952;23;20218;-79
2021/01/28 00:41:07;;;;;;;43.00;16.77;;;4.50;98.30;;;;;;5090141;23;20458;-79
2021/01/28 00:43:09;;;;;;;37.63;16.57;;;4.50;98.30;;;;;;5091271;23;20463;-79
2021/01/28 00:45:12;;;;;;;33.80;16.10;;;4.50;98.30;;;;;;5091338;23;20459;-80
2021/01/28 00:47:15;;;;;;;30.20;17.00;;;4.50;98.30;;;;;;5092463;23;20801;-80
2021/01/28 00:49:17;;;;;;;35.07;15.10;;;4.60;98.30;;;;;;5091097;23;20548;-79
2021/01/28 00:51:19;;;;;;;31.03;15.60;;;4.60;98.30;;;;;;5092010;23;20455;-80
2021/01/28 00:53:24;;;;;;;31.98;15.90;;;4.60;98.30;;;;;;5100485;23;20454;-79
2021/01/28 00:55:43;;;;;;;36.30;16.00;;;4.60;98.30;;;;;;5099897;23;20199;-79
2021/01/28 00:57:46;;;;;;;42.73;16.63;;;4.60;98.30;;;;;;5091741;23;20446;-80
2021/01/28 00:59:48;;;;;;;32.07;15.43;;;4.70;98.30;;;;;;5098914;23;20452;-80
2021/01/28 01:01:50;;;;;;;39.70;17.70;;;4.60;98.30;;;;;;5099858;23;20471;-79
2021/01/28 01:03:52;;;;;;;39.23;16.80;;;4.70;98.30;;;;;;5091455;23;20208;-79
2021/01/28 01:05:55;;;;;;;36.63;17.60;;;4.70;98.30;;;;;;5090943;23;20454;-79
2021/01/28 01:07:57;;;;;;;41.10;16.63;;;4.70;98.30;;;;;;5091268;23;20455;-79
2021/01/28 01:09:59;;;;;;;44.37;19.23;;;4.70;98.30;;;;;;5091173;23;20457;-79
2021/01/28 01:12:02;;;;;;;41.60;18.85;;;4.70;98.30;;;;;;5092058;23;20451;-80
2021/01/28 01:14:05;;;;;;;38.27;16.07;;;4.70;98.30;;;;;;5100048;23;20227;-80
2021/01/28 01:16:09;;;;;;;40.67;17.83;;;4.70;98.30;;;;;;5091338;23;20546;-80
2021/01/28 01:18:14;;;;;;;34.73;15.70;;;4.70;98.30;;;;;;5091809;23;20500;-80
2021/01/28 01:20:17;;;;;;;42.03;16.90;;;4.60;98.30;;;;;;5099108;23;20511;-80
2021/01/28 01:22:19;;;;;;;40.78;17.25;;;4.60;98.30;;;;;;5091807;23;20534;-80
2021/01/28 01:24:24;;;;;;;42.00;14.63;;;4.60;98.30;;;;;;5091295;23;20258;-80
2021/01/28 01:26:26;;;;;;;40.20;15.40;;;4.50;98.30;;;;;;5091919;23;20207;-80
2021/01/28 01:28:29;;;;;;;36.08;17.15;;;4.50;98.30;;;;;;5099763;23;20200;-81
2021/01/28 01:30:31;;;;;;;40.72;15.77;;;4.50;98.30;;;;;;5099039;23;20278;-79
2021/01/28 01:32:33;;;;;;;36.33;14.93;;;4.50;98.30;;;;;;5091751;23;20828;-79
2021/01/28 01:34:36;;;;;;;32.78;15.05;;;4.50;98.30;;;;;;5091607;23;20265;-80
2021/01/28 01:36:38;;;;;;;35.33;15.18;;;4.50;98.30;;;;;;5099363;23;20219;-79
2021/01/28 01:38:40;;;;;;;33.63;14.23;;;4.50;98.30;;;;;;5091264;23;20673;-79
2021/01/28 01:40:44;;;;;;;34.25;13.68;;;4.40;98.30;;;;;;5099535;23;20592;-79
2021/01/28 01:42:48;;;;;;;27.13;12.27;;;4.40;98.30;;;;;;5099920;23;20203;-79
2021/01/28 01:44:51;;;;;;;25.02;13.05;;;4.40;98.30;;;;;;5091503;23;20285;-79
2021/01/28 01:46:58;;;;;;;30.08;15.23;;;4.40;98.30;;;;;;5090998;23;20255;-79
2021/01/28 01:49:04;;;;;;;26.98;13.65;;;4.30;98.30;;;;;;5090509;23;20253;-79
2021/01/28 01:51:15;;;;;;;25.27;12.63;;;4.30;98.30;;;;;;5099369;23;20204;-80
2021/01/28 01:53:22;;;;;;;19.92;9.95;;;4.30;98.30;;;;;;5099193;23;20259;-79
2021/01/28 01:55:25;;;;;;;28.70;12.40;;;4.30;98.30;;;;;;5099472;23;20203;-79
2021/01/28 01:57:32;;;;;;;24.23;12.18;;;4.30;98.30;;;;;;5100095;23;20589;-79
2021/01/28 01:59:37;;;;;;;24.70;12.15;;;4.30;98.30;;;;;;5099492;23;20207;-79
2021/01/28 02:01:42;;;;;;;23.02;11.13;;;4.20;98.30;;;;;;5099649;23;20208;-79
2021/01/28 02:03:46;;;;;;;29.10;13.90;;;4.30;98.30;;;;;;5099293;23;20203;-79
2021/01/28 02:05:57;;;;;;;24.60;12.70;;;4.20;98.30;;;;;;5099187;23;20615;-79
2021/01/28 02:07:59;;;;;;;24.38;12.65;;;4.20;98.30;;;;;;5099731;23;20245;-79
2021/01/28 02:10:01;;;;;;;28.23;14.23;;;4.20;98.30;;;;;;5098596;23;20282;-79
2021/01/28 02:12:04;;;;;;;25.63;12.73;;;4.20;98.30;;;;;;5096077;23;20210;-79
2021/01/28 02:14:10;;;;;;;21.40;11.40;;;4.20;98.30;;;;;;5098806;23;20520;-79
2021/01/28 02:16:15;;;;;;;23.95;12.43;;;4.20;98.30;;;;;;5090891;23;20961;-79
2021/01/28 02:18:18;;;;;;;28.33;12.80;;;4.20;98.30;;;;;;5099407;23;20204;-79
2021/01/28 02:20:39;;;;;;;24.73;12.02;;;4.20;98.30;;;;;;5089936;23;20211;-80
2021/01/28 02:22:51;;;;;;;23.08;10.93;;;4.20;98.30;;;;;;5091274;23;20681;-80
2021/01/28 02:25:05;;;;;;;21.48;10.55;;;4.10;98.30;;;;;;5091043;23;20229;-80
2021/01/28 02:27:09;;;;;;;21.48;11.05;;;4.10;98.30;;;;;;5099424;23;20696;-80
2021/01/28 02:29:12;;;;;;;16.77;9.43;;;4.00;98.30;;;;;;5090938;23;20207;-80
2021/01/28 02:31:15;;;;;;;18.75;9.52;;;3.90;98.30;;;;;;5100064;23;20264;-80
2021/01/28 02:33:36;;;;;;;18.50;10.80;;;3.90;98.30;;;;;;5092658;23;20670;-80
2021/01/28 02:35:39;;;;;;;20.20;10.10;;;3.80;98.30;;;;;;5091175;23;20588;-80
2021/01/28 02:37:41;;;;;;;20.73;10.00;;;3.80;98.30;;;;;;5091106;23;21057;-80
2021/01/28 02:39:44;;;;;;;126.70;58.10;;;3.80;98.30;;;;;;5098787;23;20203;-80
2021/01/28 02:41:52;;;;;;;83.13;42.70;;;3.80;98.30;;;;;;5091257;23;20235;-80
2021/01/28 02:43:58;;;;;;;146.82;61.58;;;3.80;98.30;;;;;;5091458;23;20218;-79
2021/01/28 02:46:03;;;;;;;83.43;40.50;;;3.80;98.30;;;;;;5091317;23;20222;-80
2021/01/28 02:48:07;;;;;;;32.07;17.17;;;3.80;98.30;;;;;;5099399;23;20207;-80
2021/01/28 02:50:10;;;;;;;24.33;11.70;;;3.90;98.30;;;;;;5098663;23;20505;-79
2021/01/28 02:52:12;;;;;;;20.77;10.80;;;3.90;98.30;;;;;;5099274;23;20208;-81
2021/01/28 02:54:15;;;;;;;27.25;12.07;;;3.90;98.30;;;;;;5098976;23;20294;-80
2021/01/28 02:56:17;;;;;;;24.20;10.98;;;3.90;98.30;;;;;;5091381;23;20215;-80
2021/01/28 02:58:19;;;;;;;24.08;11.13;;;3.90;98.30;;;;;;5099020;23;20255;-80
2021/01/28 03:00:27;;;;;;;21.60;12.07;;;4.00;98.30;;;;;;5090557;23;20242;-80
2021/01/28 03:02:29;;;;;;;66.38;32.42;;;4.00;98.30;;;;;;5091645;23;20450;-80
2021/01/28 03:04:31;;;;;;;32.90;18.07;;;4.00;98.30;;;;;;5099059;23;20292;-80
2021/01/28 03:06:33;;;;;;;89.10;41.47;;;4.00;98.30;;;;;;5090790;23;21221;-79
2021/01/28 03:08:35;;;;;;;33.83;18.35;;;4.00;98.30;;;;;;5090625;23;20218;-80
2021/01/28 03:10:37;;;;;;;24.00;12.30;;;3.90;98.30;;;;;;5090283;23;20629;-80
2021/01/28 03:12:39;;;;;;;22.55;11.55;;;3.90;98.30;;;;;;5091323;23;20299;-79
2021/01/28 03:14:41;;;;;;;21.60;10.55;;;3.90;98.30;;;;;;5090935;23;20278;-79
2021/01/28 03:16:43;;;;;;;21.55;12.25;;;3.90;98.30;;;;;;5098604;23;20203;-79
2021/01/28 03:18:46;;;;;;;18.58;10.05;;;3.90;98.30;;;;;;5090694;23;20597;-79
2021/01/28 03:20:48;;;;;;;17.38;9.48;;;4.00;98.30;;;;;;5090494;23;20211;-79
2021/01/28 03:22:50;;;;;;;19.98;9.93;;;4.00;98.30;;;;;;5098680;23;20570;-79
2021/01/28 03:24:52;;;;;;;21.67;9.75;;;4.00;98.30;;;;;;5098486;23;20215;-79
2021/01/28 03:26:54;;;;;;;18.45;9.63;;;3.90;98.30;;;;;;5098290;23;20204;-79
2021/01/28 03:28:56;;;;;;;21.38;8.90;;;3.90;98.30;;;;;;5089466;23;20250;-79
2021/01/28 03:30:58;;;;;;;18.38;8.63;;;3.90;98.30;;;;;;5090343;23;20290;-79
2021/01/28 03:33:03;;;;;;;19.02;9.32;;;3.90;98.30;;;;;;5098538;23;20239;-79
2021/01/28 03:35:07;;;;;;;17.10;8.93;;;3.90;98.30;;;;;;5098150;23;20195;-79
2021/01/28 03:37:09;;;;;;;15.13;9.15;;;3.80;98.30;;;;;;5090183;23;20454;-79
2021/01/28 03:39:11;;;;;;;15.13;8.50;;;3.90;98.30;;;;;;5089319;23;20249;-79
2021/01/28 03:41:13;;;;;;;15.40;8.20;;;3.90;98.30;;;;;;5090430;23;20204;-78
2021/01/28 03:43:15;;;;;;;19.83;9.20;;;3.90;98.30;;;;;;5090213;23;20211;-79
2021/01/28 03:45:18;;;;;;;14.73;8.30;;;3.90;98.30;;;;;;5089772;23;20216;-79
2021/01/28 03:47:20;;;;;;;112.50;51.35;;;4.00;98.30;;;;;;5099472;23;20210;-78
2021/01/28 03:49:24;;;;;;;59.88;32.17;;;4.00;98.30;;;;;;5096345;23;20215;-78
2021/01/28 03:51:26;;;;;;;63.00;31.57;;;4.10;98.30;;;;;;5097072;23;20239;-78
2021/01/28 03:53:28;;;;;;;29.93;14.77;;;4.10;98.30;;;;;;5097505;23;20497;-78
2021/01/28 03:55:30;;;;;;;21.67;12.27;;;4.00;98.30;;;;;;5105849;23;20530;-79
2021/01/28 03:57:32;;;;;;;15.93;9.20;;;4.10;98.30;;;;;;5098805;23;20441;-79
2021/01/28 03:59:34;;;;;;;15.93;8.20;;;4.10;98.30;;;;;;5106885;23;20466;-82
2021/01/28 04:01:36;;;;;;;18.02;9.95;;;4.20;98.30;;;;;;5099865;23;20451;-80
2021/01/28 04:03:38;;;;;;;15.05;8.60;;;4.20;98.30;;;;;;5108309;23;20207;-80
2021/01/28 04:05:41;;;;;;;18.43;9.10;;;4.20;98.30;;;;;;5108396;23;20215;-80
2021/01/28 04:07:43;;;;;;;17.90;8.48;;;4.10;98.30;;;;;;5108813;23;20451;-81
2021/01/28 04:09:46;;;;;;;48.78;26.85;;;4.10;98.30;;;;;;5107563;23;20204;-79
2021/01/28 04:11:48;;;;;;;23.30;12.00;;;4.10;98.30;;;;;;5114422;23;20206;-79
2021/01/28 04:13:50;;;;;;;21.30;10.70;;;4.10;98.30;;;;;;5114871;23;20477;-80
2021/01/28 04:15:52;;;;;;;25.58;12.25;;;4.10;98.30;;;;;;5112852;23;20859;-80
2021/01/28 04:17:54;;;;;;;17.60;9.47;;;4.00;98.30;;;;;;5102096;23;20313;-79
2021/01/28 04:19:56;;;;;;;13.67;7.70;;;4.00;98.30;;;;;;5109487;23;20501;-79
2021/01/28 04:21:59;;;;;;;12.57;7.03;;;4.00;98.30;;;;;;5112010;23;20471;-79
2021/01/28 04:24:06;;;;;;;11.67;6.90;;;4.00;98.30;;;;;;5104476;23;20570;-80
2021/01/28 04:26:08;;;;;;;12.65;7.38;;;4.00;98.30;;;;;;5095393;23;20459;-80
2021/01/28 04:28:11;;;;;;;14.18;7.43;;;4.00;98.30;;;;;;5098548;23;20207;-79
2021/01/28 04:30:16;;;;;;;11.07;6.90;;;3.90;98.30;;;;;;5089775;23;20322;-79
2021/01/28 04:32:18;;;;;;;12.55;8.02;;;3.90;98.30;;;;;;5098667;23;20526;-79
2021/01/28 04:34:20;;;;;;;11.10;6.53;;;3.90;98.30;;;;;;5098562;23;20218;-79
2021/01/28 04:36:24;;;;;;;11.85;7.15;;;3.90;98.30;;;;;;5098795;23;20453;-79
2021/01/28 04:38:27;;;;;;;11.77;7.05;;;3.90;98.30;;;;;;5090630;23;20216;-80
2021/01/28 04:40:34;;;;;;;9.00;6.67;;;3.90;98.30;;;;;;5090018;23;20250;-79
2021/01/28 04:42:43;;;;;;;13.15;7.22;;;3.90;98.30;;;;;;5090520;23;20458;-79
2021/01/28 04:44:46;;;;;;;13.88;7.15;;;3.80;98.30;;;;;;5098465;23;20247;-79
2021/01/28 04:46:51;;;;;;;14.00;7.50;;;3.80;98.30;;;;;;5090624;23;20211;-80
2021/01/28 04:48:54;;;;;;;13.63;8.75;;;3.70;98.30;;;;;;5097953;23;20521;-79
2021/01/28 04:50:59;;;;;;;11.13;7.03;;;3.70;98.30;;;;;;5090618;23;20208;-79
2021/01/28 04:53:04;;;;;;;10.90;7.32;;;3.70;98.30;;;;;;5099403;23;20236;-79
2021/01/28 04:55:11;;;;;;;10.95;7.05;;;3.60;98.30;;;;;;5099000;23;20701;-79
2021/01/28 04:57:14;;;;;;;15.23;7.35;;;3.40;98.30;;;;;;5089717;23;20204;-79
2021/01/28 04:59:20;;;;;;;8.80;6.18;;;3.30;98.30;;;;;;5098472;23;20558;-78
2021/01/28 05:01:28;;;;;;;12.05;7.38;;;3.20;98.30;;;;;;5093371;23;20246;-79
2021/01/28 05:03:36;;;;;;;11.13;6.40;;;3.20;98.30;;;;;;5099115;23;20669;-79
2021/01/28 05:05:39;;;;;;;11.88;7.45;;;3.10;98.30;;;;;;5089677;23;20214;-79
2021/01/28 05:07:41;;;;;;;96.82;48.35;;;3.10;98.30;;;;;;5090561;23;20203;-79
2021/01/28 05:09:43;;;;;;;137.18;63.58;;;3.00;98.30;;;;;;5089439;23;20247;-79
2021/01/28 05:11:54;;;;;;;113.05;53.15;;;3.00;98.30;;;;;;5090354;23;20242;-78
2021/01/28 05:14:14;;;;;;;25.17;13.48;;;2.90;98.30;;;;;;5098386;23;20231;-79
2021/01/28 05:16:24;;;;;;;12.00;7.80;;;2.80;98.30;;;;;;5097683;23;20202;-79
2021/01/28 05:18:30;;;;;;;12.27;7.22;;;2.80;98.30;;;;;;5089982;23;20290;-79
2021/01/28 05:20:32;;;;;;;10.77;6.82;;;2.80;98.30;;;;;;5097384;23;20675;-79
2021/01/28 05:22:38;;;;;;;10.88;6.97;;;2.80;98.30;;;;;;5089915;23;20221;-79
2021/01/28 05:24:45;;;;;;;10.13;6.95;;;2.80;98.30;;;;;;5098064;23;20199;-79
2021/01/28 05:26:49;;;;;;;17.30;9.50;;;2.80;98.30;;;;;;5090437;23;20654;-79
2021/01/28 05:28:52;;;;;;;25.33;12.85;;;2.90;98.30;;;;;;5098274;23;20199;-79
2021/01/28 05:30:55;;;;;;;15.27;9.15;;;2.80;98.30;;;;;;5099846;23;20207;-79
2021/01/28 05:32:57;;;;;;;10.80;6.78;;;2.80;98.30;;;;;;5099706;23;20701;-79
2021/01/28 05:35:15;;;;;;;13.90;7.80;;;2.80;98.30;;;;;;5091650;23;20258;-78
2021/01/28 05:37:24;;;;;;;12.10;8.32;;;2.80;98.30;;;;;;5091662;23;20211;-79
2021/01/28 05:39:31;;;;;;;11.45;7.40;;;2.90;98.30;;;;;;5091192;23;20209;-79
2021/01/28 05:41:35;;;;;;;9.40;6.80;;;2.90;98.30;;;;;;5100122;23;20278;-79
2021/01/28 05:43:39;;;;;;;11.70;7.43;;;2.90;98.30;;;;;;5091327;23;20218;-78
2021/01/28 05:45:42;;;;;;;13.90;7.07;;;2.90;98.30;;;;;;5091066;23;20213;-78
2021/01/28 05:47:44;;;;;;;12.60;7.50;;;2.90;98.30;;;;;;5091248;23;20207;-79
2021/01/28 05:49:47;;;;;;;11.32;6.43;;;3.00;98.30;;;;;;5098504;23;20218;-79
2021/01/28 05:51:50;;;;;;;13.45;7.40;;;3.00;98.30;;;;;;5090896;23;20210;-79
2021/01/28 05:54:00;;;;;;;12.63;6.80;;;3.00;98.30;;;;;;5099610;23;20258;-78
2021/01/28 05:56:04;;;;;;;13.02;7.47;;;3.00;98.30;;;;;;5099518;23;20266;-79
2021/01/28 05:58:12;;;;;;;12.60;7.65;;;3.00;98.30;;;;;;5091328;23;20203;-79
2021/01/28 06:00:20;;;;;;;10.52;6.97;;;3.10;98.30;;;;;;5091057;23;20428;-78
2021/01/28 06:02:41;;;;;;;11.63;7.63;;;3.00;98.30;;;;;;5091893;23;20217;-78
2021/01/28 06:04:56;;;;;;;10.85;6.95;;;3.00;98.30;;;;;;5099904;23;20214;-79
2021/01/28 06:07:49;;;;;;;12.80;8.07;;;3.00;98.30;;;;;;5091822;23;20211;-79
2021/01/28 06:10:02;;;;;;;11.55;8.10;;;3.00;98.30;;;;;;5099133;23;20655;-79
2021/01/28 06:12:26;;;;;;;14.10;8.35;;;2.90;98.30;;;;;;5091899;23;20218;-79
2021/01/28 06:14:42;;;;;;;12.15;8.60;;;2.90;98.30;;;;;;5091414;23;20218;-79
2021/01/28 06:16:53;;;;;;;11.27;7.30;;;2.90;98.30;;;;;;5092058;23;20594;-79
2021/01/28 06:19:34;;;;;;;13.25;7.45;;;2.90;98.30;;;;;;5090960;23;20576;-79
2021/01/28 06:21:58;;;;;;;10.75;7.40;;;2.90;98.30;;;;;;5011450;23;20207;-78
2021/01/28 06:24:14;;;;;;;10.98;6.80;;;2.90;98.30;;;;;;5091469;23;20584;-80
2021/01/28 06:26:25;;;;;;;12.77;7.30;;;2.90;98.30;;;;;;5090607;23;20207;-79
2021/01/28 06:28:51;;;;;;;9.45;6.78;;;2.90;98.30;;;;;;5090975;23;20211;-79
2021/01/28 06:31:10;;;;;;;11.27;7.07;;;2.90;98.30;;;;;;5090978;23;20750;-78
2021/01/28 06:33:42;;;;;;;12.32;7.65;;;3.00;98.30;;;;;;5099095;23;20214;-79
2021/01/28 06:35:57;;;;;;;11.27;7.40;;;3.00;98.30;;;;;;5062089;23;20203;-78
2021/01/28 06:38:16;;;;;;;8.30;6.38;;;3.00;98.30;;;;;;5090901;23;20203;-78
2021/01/28 06:40:21;;;;;;;13.30;8.05;;;3.00;98.30;;;;;;5090074;23;20211;-78
2021/01/28 06:42:28;;;;;;;10.40;7.05;;;3.00;98.30;;;;;;5091097;23;20286;-79
2021/01/28 06:44:34;;;;;;;13.63;7.50;;;3.00;98.30;;;;;;5090645;23;20207;-79
2021/01/28 06:46:44;;;;;;;12.15;8.10;;;2.90;98.30;;;;;;5099106;23;20229;-79
2021/01/28 06:48:50;;;;;;;12.88;8.50;;;2.90;98.30;;;;;;5098176;23;20211;-79
2021/01/28 06:51:01;;;;;;;13.60;8.60;;;2.90;98.30;;;;;;5098669;23;20526;-78
2021/01/28 06:53:25;;;;;;;10.18;7.40;;;2.80;98.30;;;;;;5091145;23;20570;-79
2021/01/28 06:55:45;;;;;;;13.30;7.95;;;2.80;98.30;;;;;;5090726;23;20279;-79
2021/01/28 06:57:52;;;;;;;10.10;6.80;;;2.90;98.30;;;;;;5091269;23;20203;-79
2021/01/28 07:00:01;;;;;;;12.27;7.53;;;2.80;98.30;;;;;;5098556;23;20199;-79
2021/01/28 07:02:07;;;;;;;11.32;7.68;;;2.80;98.30;;;;;;5098895;23;20203;-79
2021/01/28 07:04:18;;;;;;;10.18;6.70;;;2.80;98.30;;;;;;5099165;23;20199;-80
2021/01/28 07:06:29;;;;;;;9.88;7.60;;;2.80;98.30;;;;;;5099169;23;20233;-79
2021/01/28 07:08:57;;;;;;;10.68;6.68;;;2.80;98.30;;;;;;5099342;23;20195;-79
2021/01/28 07:10:59;;;;;;;11.88;7.95;;;2.70;98.30;;;;;;5091280;23;20771;-79
2021/01/28 07:13:04;;;;;;;10.20;7.10;;;2.70;98.30;;;;;;5091141;23;20585;-79
2021/01/28 07:15:11;;;;;;;11.55;8.40;;;2.60;98.30;;;;;;5099484;23;20589;-79
2021/01/28 07:17:20;;;;;;;10.18;6.78;;;2.60;98.30;;;;;;5099711;23;20203;-79
2021/01/28 07:19:28;;;;;;;14.63;8.05;;;2.60;98.30;;;;;;5090293;23;20242;-80
2021/01/28 07:21:35;;;;;;;13.55;7.57;;;2.60;98.30;;;;;;5099116;23;20590;-79
2021/01/28 07:23:39;;;;;;;10.55;7.03;;;2.70;98.30;;;;;;5091309;23;20585;-79
2021/01/28 07:25:42;;;;;;;11.90;8.65;;;2.70;98.30;;;;;;5098179;23;20218;-78
2021/01/28 07:27:58;;;;;;;15.98;7.90;;;2.70;98.30;;;;;;5090476;23;20956;-79
2021/01/28 07:30:00;;;;;;;13.68;7.72;;;2.60;98.30;;;;;;5098428;23;20282;-79
2021/01/28 07:32:04;;;;;;;10.43;7.57;;;2.60;98.30;;;;;;5099281;23;20204;-79
2021/01/28 07:34:11;;;;;;;13.65;7.97;;;2.60;98.30;;;;;;5098511;23;20527;-79
2021/01/28 07:36:40;;;;;;;10.05;7.43;;;2.60;98.30;;;;;;5098775;23;20200;-79
2021/01/28 07:38:46;;;;;;;10.68;7.63;;;2.60;98.30;;;;;;5098472;23;20203;-79
2021/01/28 07:40:57;;;;;;;10.85;7.20;;;2.60;98.30;;;;;;5098296;23;20226;-79
2021/01/28 07:43:02;;;;;;;12.50;7.80;;;2.60;98.30;;;;;;5091203;23;20214;-79
2021/01/28 07:45:23;;;;;;;11.35;7.68;;;2.60;98.30;;;;;;5090810;23;20208;-78
2021/01/28 07:47:59;;;;;;;13.40;7.80;;;2.70;98.30;;;;;;5098990;23;20211;-80
2021/01/28 07:50:30;;;;;;;10.75;7.72;;;2.70;98.30;;;;;;5098822;23;20207;-79
2021/01/28 07:52:38;;;;;;;13.90;7.32;;;2.70;98.30;;;;;;5099636;23;20993;-79
2021/01/28 07:54:46;;;;;;;12.80;8.93;;;2.70;98.30;;;;;;5089975;23;20290;-79
2021/01/28 07:56:50;;;;;;;12.75;8.15;;;2.60;98.30;;;;;;5090683;23;20747;-79
2021/01/28 07:58:54;;;;;;;13.30;9.30;;;2.60;98.30;;;;;;5090497;23;20286;-80
2021/01/28 08:00:56;;;;;;;13.50;9.27;;;2.50;98.30;;;;;;5091566;23;20219;-79
2021/01/28 08:03:03;;;;;;;12.50;7.95;;;2.50;98.30;;;;;;5099176;23;20625;-79
2021/01/28 08:05:14;;;;;;;11.48;8.57;;;2.60;98.30;;;;;;5098661;23;20270;-80
2021/01/28 08:07:23;;;;;;;11.27;8.52;;;2.60;98.30;;;;;;5098585;23;20206;-79
2021/01/28 08:09:26;;;;;;;11.85;8.00;;;2.60;98.30;;;;;;5097979;23;20709;-80
2021/01/28 08:11:49;;;;;;;12.82;8.27;;;2.50;98.30;;;;;;5098874;23;20210;-80
2021/01/28 08:13:54;;;;;;;13.43;8.68;;;2.50;98.30;;;;;;5089610;23;20212;-79
2021/01/28 08:16:00;;;;;;;12.70;8.70;;;2.50;98.30;;;;;;5090544;23;20203;-80
2021/01/28 08:18:12;;;;;;;12.40;8.68;;;2.50;98.30;;;;;;5090395;23;20742;-80
2021/01/28 08:20:21;;;;;;;10.52;7.25;;;2.50;98.30;;;;;;5090917;23;20218;-79
2021/01/28 08:22:23;;;;;;;12.20;9.00;;;2.50;98.30;;;;;;5099845;23;20305;-80
2021/01/28 08:24:35;;;;;;;11.00;7.80;;;2.50;98.30;;;;;;5091556;23;20242;-80
2021/01/28 08:26:39;;;;;;;12.23;8.80;;;2.50;98.30;;;;;;5091041;23;20210;-79
2021/01/28 08:28:43;;;;;;;12.00;7.40;;;2.60;98.30;;;;;;5098861;23;20203;-79
2021/01/28 08:30:46;;;;;;;11.77;7.65;;;2.60;98.30;;;;;;5098938;23;20203;-79
2021/01/28 08:32:54;;;;;;;14.57;9.52;;;2.60;98.30;;;;;;5099460;23;20199;-79
2021/01/28 08:35:01;;;;;;;12.25;8.13;;;2.60;98.30;;;;;;5091120;23;20659;-80
2021/01/28 08:37:11;;;;;;;14.05;9.77;;;2.70;98.30;;;;;;5091279;23;20230;-79
2021/01/28 08:39:16;;;;;;;13.23;8.40;;;2.70;98.30;;;;;;5098478;23;20214;-79
2021/01/28 08:41:25;;;;;;;10.75;8.00;;;2.80;98.30;;;;;;5098890;23;20768;-80
2021/01/28 08:43:27;;;;;;;12.90;8.13;;;2.80;98.30;;;;;;5099750;23;20209;-80
2021/01/28 08:45:29;;;;;;;11.70;7.97;;;2.80;98.30;;;;;;5091114;23;20247;-80
2021/01/28 08:47:32;;;;;;;10.93;7.70;;;2.80;98.30;;;;;;5099470;23;20655;-81
2021/01/28 08:49:35;;;;;;;12.40;8.07;;;2.90;98.30;;;;;;5089938;23;20224;-79
2021/01/28 08:51:41;;;;;;;10.95;7.40;;;2.90;98.30;;;;;;5091407;23;20207;-80
2021/01/28 08:53:47;;;;;;;10.48;7.85;;;2.90;98.30;;;;;;5099356;23;20207;-79
2021/01/28 08:55:50;;;;;;;8.43;7.07;;;3.00;98.30;;;;;;5098947;23;20590;-80
2021/01/28 08:57:59;;;;;;;14.48;8.50;;;3.00;98.30;;;;;;5099089;23;20324;-79
2021/01/28 09:00:07;;;;;;;12.35;7.15;;;3.00;98.30;;;;;;5090988;23;20203;-79
2021/01/28 09:02:13;;;;;;;12.00;7.32;;;3.00;98.30;;;;;;5099757;23;20558;-79
2021/01/28 09:04:22;;;;;;;9.43;7.30;;;3.10;98.30;;;;;;5100287;23;20207;-79
2021/01/28 09:06:24;;;;;;;11.23;7.63;;;3.20;98.30;;;;;;5101364;23;20249;-79
2021/01/28 09:08:33;;;;;;;12.20;7.03;;;3.40;98.30;;;;;;5100517;23;20219;-80
2021/01/28 09:10:49;;;;;;;9.82;7.28;;;3.40;98.30;;;;;;5100459;23;20887;-80
2021/01/28 09:12:51;;;;;;;10.35;7.13;;;3.30;98.30;;;;;;5100616;23;20287;-80
2021/01/28 09:15:09;;;;;;;8.13;6.43;;;3.30;98.30;;;;;;5100758;23;20679;-80
2021/01/28 09:17:22;;;;;;;9.68;7.43;;;3.30;98.30;;;;;;5100888;23;20214;-80
2021/01/28 09:19:26;;;;;;;8.35;6.70;;;3.30;98.30;;;;;;5099143;23;20218;-79
2021/01/28 09:21:39;;;;;;;8.52;5.93;;;3.30;98.30;;;;;;5092207;23;20635;-80
2021/01/28 09:23:56;;;;;;;10.33;7.13;;;3.20;98.30;;;;;;5100439;23;20524;-80
2021/01/28 09:26:10;;;;;;;10.32;6.57;;;3.30;98.30;;;;;;5100674;23;20468;-80
2021/01/28 09:28:23;;;;;;;8.57;5.85;;;3.30;98.30;;;;;;5101060;23;20204;-80
2021/01/28 09:30:33;;;;;;;8.93;6.55;;;3.20;98.30;;;;;;5093830;23;20207;-80
2021/01/28 09:32:35;;;;;;;10.02;6.45;;;3.30;98.30;;;;;;5100730;23;20585;-80
2021/01/28 09:34:37;;;;;;;8.77;6.60;;;3.30;98.30;;;;;;5099572;23;20235;-79
2021/01/28 09:36:40;;;;;;;6.90;5.55;;;3.20;98.30;;;;;;5100099;23;20298;-79
2021/01/28 09:38:59;;;;;;;9.90;6.55;;;3.20;98.30;;;;;;5099712;23;20280;-80
2021/01/28 09:41:13;;;;;;;8.98;5.55;;;3.20;98.30;;;;;;5099456;23;20254;-79
2021/01/28 09:43:23;;;;;;;7.63;5.90;;;3.20;98.30;;;;;;5100870;23;20573;-79
2021/01/28 09:45:27;;;;;;;7.32;5.30;;;3.30;98.30;;;;;;5092039;23;20674;-80
2021/01/28 09:47:30;;;;;;;7.32;5.57;;;3.30;98.30;;;;;;5092358;23;20298;-80
2021/01/28 09:49:33;;;;;;;7.70;5.80;;;3.30;98.30;;;;;;5099658;23;20234;-80
2021/01/28 09:51:51;;;;;;;14.10;8.43;;;3.30;98.30;;;;;;5101012;23;20585;-79
2021/01/28 09:54:12;;;;;;;28.52;14.35;;;3.60;98.30;;;;;;5099858;23;20533;-80
2021/01/28 09:56:14;;;;;;;14.40;8.25;;;3.70;98.30;;;;;;5100209;23;20294;-80
2021/01/28 09:58:16;;;;;;;6.78;5.38;;;3.80;98.30;;;;;;5099836;23;20582;-80
2021/01/28 10:00:21;;;;;;;8.80;5.57;;;3.70;98.30;;;;;;5091594;23;20207;-80
2021/01/28 10:02:36;;;;;;;8.15;6.07;;;3.50;98.30;;;;;;5100623;23;20206;-80
2021/01/28 10:04:39;;;;;;;6.72;5.18;;;3.30;98.30;;;;;;5100335;23;20202;-79
2021/01/28 10:06:41;;;;;;;6.20;4.93;;;3.00;98.30;;;;;;5099777;23;20242;-79
2021/01/28 10:08:43;;;;;;;60.55;31.63;;;3.00;98.30;;;;;;5092019;23;20752;-80
2021/01/28 10:10:46;;;;;;;31.95;16.35;;;3.10;98.30;;;;;;5097489;23;20547;-80
2021/01/28 10:12:49;;;;;;;17.90;9.63;;;3.00;98.30;;;;;;5099793;23;20599;-79
2021/01/28 10:14:51;;;;;;;8.30;6.00;;;3.20;98.30;;;;;;5099671;23;20211;-79
2021/01/28 10:16:53;;;;;;;7.22;5.70;;;3.30;98.30;;;;;;5100404;23;20288;-80
2021/01/28 10:18:56;;;;;;;7.18;5.25;;;3.30;98.30;;;;;;5099136;23;20203;-79
2021/01/28 10:21:00;;;;;;;7.00;5.40;;;3.40;98.30;;;;;;5100265;23;20715;-79
2021/01/28 10:23:06;;;;;;;7.25;5.78;;;3.40;98.30;;;;;;5100484;23;20274;-79
2021/01/28 10:25:11;;;;;;;8.90;6.70;;;3.60;98.30;;;;;;5092464;23;20207;-80
2021/01/28 10:27:13;;;;;;;17.08;10.20;;;3.60;98.30;;;;;;5100450;23;20234;-79
2021/01/28 10:29:15;;;;;;;82.45;39.22;;;3.70;98.30;;;;;;5091394;23;20237;-79
2021/01/28 10:31:17;;;;;;;42.83;24.40;;;3.70;98.30;;;;;;5092522;23;20288;-80
2021/01/28 10:33:19;;;;;;;16.85;9.32;;;3.80;98.30;;;;;;5093434;23;20308;-80
2021/01/28 10:35:25;;;;;;;8.87;7.03;;;3.80;98.30;;;;;;5100027;23;20200;-79
2021/01/28 10:37:27;;;;;;;11.83;7.10;;;3.90;98.30;;;;;;5100457;23;20459;-80
2021/01/28 10:39:29;;;;;;;10.87;7.80;;;4.00;98.30;;;;;;5098912;23;20947;-79
2021/01/28 10:41:31;;;;;;;10.95;7.35;;;4.10;98.30;;;;;;5091402;23;20459;-79
2021/01/28 10:43:34;;;;;;;10.13;7.57;;;4.10;98.30;;;;;;5100679;23;20200;-80
2021/01/28 10:45:38;;;;;;;12.33;7.57;;;4.20;98.30;;;;;;5100149;23;20455;-80
2021/01/28 10:47:40;;;;;;;36.87;21.50;;;4.20;98.30;;;;;;5099819;23;20448;-80
2021/01/28 10:49:58;;;;;;;36.60;20.27;;;4.30;98.30;;;;;;5088110;23;20462;-83
2021/01/28 10:54:30;;;;;;;8.77;6.70;;;4.10;98.30;;;;;;5098822;23;20534;-83
2021/01/28 10:56:32;;;;;;;10.03;5.57;;;3.90;98.30;;;;;;5100556;23;20419;-82
2021/01/28 10:58:34;;;;;;;9.57;7.47;;;3.90;98.30;;;;;;5091849;23;20506;-83